sensor_id;sensor_type;location;lat;lon;timestamp;P1;durP1;ratioP1;P2;durP2;ratioP2
25913;SDS011;13718;50.922;5.346;2023-06-10T00:00:33;15.27;;;9.98;;
25913;SDS011;13718;50.922;5.346;2023-06-10T00:02:59;13.25;;;9.55;;
25913;SDS011;13718;50.922;5.346;2023-06-10T00:05:25;15.23;;;9.73;;
25913;SDS011;13718;50.922;5.346;2023-06-10T00:07:51;16.45;;;10.00;;
25913;SDS011;13718;50.922;5.346;2023-06-10T00:10:20;19.00;;;10.55;;
25913;SDS011;13718;50.922;5.346;2023-06-10T00:12:45;14.55;;;10.35;;
25913;SDS011;13718;50.922;5.346;2023-06-10T00:15:11;12.57;;;10.55;;
25913;SDS011;13718;50.922;5.346;2023-06-10T00:17:37;12.75;;;10.57;;
25913;SDS011;13718;50.922;5.346;2023-06-10T00:20:04;16.92;;;9.70;;
25913;SDS011;13718;50.922;5.346;2023-06-10T00:22:34;13.63;;;10.43;;
25913;SDS011;13718;50.922;5.346;2023-06-10T00:24:59;13.00;;;9.50;;
25913;SDS011;13718;50.922;5.346;2023-06-10T00:27:25;18.13;;;10.55;;
25913;SDS011;13718;50.922;5.346;2023-06-10T00:29:56;16.20;;;10.60;;
25913;SDS011;13718;50.922;5.346;2023-06-10T00:32:22;13.45;;;10.30;;
25913;SDS011;13718;50.922;5.346;2023-06-10T00:34:48;14.65;;;10.45;;
25913;SDS011;13718;50.922;5.346;2023-06-10T00:37:13;16.52;;;10.15;;
25913;SDS011;13718;50.922;5.346;2023-06-10T00:39:39;14.50;;;10.43;;
25913;SDS011;13718;50.922;5.346;2023-06-10T00:42:04;14.18;;;10.57;;
25913;SDS011;13718;50.922;5.346;2023-06-10T00:44:32;15.68;;;11.10;;
25913;SDS011;13718;50.922;5.346;2023-06-10T00:46:57;16.17;;;10.60;;
25913;SDS011;13718;50.922;5.346;2023-06-10T00:49:23;15.13;;;11.00;;
25913;SDS011;13718;50.922;5.346;2023-06-10T00:51:50;14.73;;;10.93;;
25913;SDS011;13718;50.922;5.346;2023-06-10T00:54:17;14.77;;;10.60;;
25913;SDS011;13718;50.922;5.346;2023-06-10T00:56:43;14.07;;;10.95;;
25913;SDS011;13718;50.922;5.346;2023-06-10T00:59:09;15.82;;;10.65;;
25913;SDS011;13718;50.922;5.346;2023-06-10T01:01:34;13.43;;;10.40;;
25913;SDS011;13718;50.922;5.346;2023-06-10T01:04:02;14.23;;;10.50;;
25913;SDS011;13718;50.922;5.346;2023-06-10T01:06:36;14.27;;;10.50;;
25913;SDS011;13718;50.922;5.346;2023-06-10T01:15:06;17.38;;;10.40;;
25913;SDS011;13718;50.922;5.346;2023-06-10T01:17:33;16.15;;;10.98;;
25913;SDS011;13718;50.922;5.346;2023-06-10T01:20:01;14.27;;;11.13;;
25913;SDS011;13718;50.922;5.346;2023-06-10T01:22:36;15.30;;;11.23;;
25913;SDS011;13718;50.922;5.346;2023-06-10T01:25:02;15.15;;;11.40;;
25913;SDS011;13718;50.922;5.346;2023-06-10T01:27:29;15.13;;;10.65;;
25913;SDS011;13718;50.922;5.346;2023-06-10T01:30:18;16.15;;;10.85;;
25913;SDS011;13718;50.922;5.346;2023-06-10T01:32:46;16.45;;;11.98;;
25913;SDS011;13718;50.922;5.346;2023-06-10T01:35:15;17.38;;;11.25;;
25913;SDS011;13718;50.922;5.346;2023-06-10T01:37:45;16.60;;;10.95;;
25913;SDS011;13718;50.922;5.346;2023-06-10T01:40:11;15.30;;;11.90;;
25913;SDS011;13718;50.922;5.346;2023-06-10T01:42:38;17.85;;;12.55;;
25913;SDS011;13718;50.922;5.346;2023-06-10T01:45:04;18.23;;;12.40;;
25913;SDS011;13718;50.922;5.346;2023-06-10T01:47:30;21.58;;;11.95;;
25913;SDS011;13718;50.922;5.346;2023-06-10T01:49:56;16.85;;;11.60;;
25913;SDS011;13718;50.922;5.346;2023-06-10T01:52:22;15.35;;;11.43;;
25913;SDS011;13718;50.922;5.346;2023-06-10T01:54:47;15.00;;;10.90;;
25913;SDS011;13718;50.922;5.346;2023-06-10T01:57:13;16.80;;;11.38;;
25913;SDS011;13718;50.922;5.346;2023-06-10T01:59:39;16.92;;;11.68;;
25913;SDS011;13718;50.922;5.346;2023-06-10T02:02:05;16.80;;;11.68;;
25913;SDS011;13718;50.922;5.346;2023-06-10T02:04:30;15.27;;;11.32;;
25913;SDS011;13718;50.922;5.346;2023-06-10T02:06:56;15.55;;;11.63;;
25913;SDS011;13718;50.922;5.346;2023-06-10T02:09:22;14.02;;;11.57;;
25913;SDS011;13718;50.922;5.346;2023-06-10T02:11:48;16.17;;;12.10;;
25913;SDS011;13718;50.922;5.346;2023-06-10T02:14:14;17.17;;;12.50;;
25913;SDS011;13718;50.922;5.346;2023-06-10T02:16:40;16.63;;;11.38;;
25913;SDS011;13718;50.922;5.346;2023-06-10T02:19:05;16.77;;;12.27;;
25913;SDS011;13718;50.922;5.346;2023-06-10T02:21:32;15.07;;;12.07;;
25913;SDS011;13718;50.922;5.346;2023-06-10T02:23:59;16.58;;;11.55;;
25913;SDS011;13718;50.922;5.346;2023-06-10T02:26:25;17.10;;;11.57;;
25913;SDS011;13718;50.922;5.346;2023-06-10T02:28:51;18.75;;;12.20;;
25913;SDS011;13718;50.922;5.346;2023-06-10T02:31:17;15.30;;;12.18;;
25913;SDS011;13718;50.922;5.346;2023-06-10T02:33:43;18.38;;;12.18;;
25913;SDS011;13718;50.922;5.346;2023-06-10T02:36:09;16.08;;;12.30;;
25913;SDS011;13718;50.922;5.346;2023-06-10T02:38:40;19.33;;;12.32;;
25913;SDS011;13718;50.922;5.346;2023-06-10T02:41:06;17.77;;;12.38;;
25913;SDS011;13718;50.922;5.346;2023-06-10T02:43:32;16.52;;;12.43;;
25913;SDS011;13718;50.922;5.346;2023-06-10T02:45:58;18.67;;;12.45;;
25913;SDS011;13718;50.922;5.346;2023-06-10T02:48:24;18.58;;;13.55;;
25913;SDS011;13718;50.922;5.346;2023-06-10T02:50:49;18.05;;;13.48;;
25913;SDS011;13718;50.922;5.346;2023-06-10T02:53:15;19.08;;;13.07;;
25913;SDS011;13718;50.922;5.346;2023-06-10T02:55:41;18.83;;;13.88;;
25913;SDS011;13718;50.922;5.346;2023-06-10T02:58:07;16.70;;;13.23;;
25913;SDS011;13718;50.922;5.346;2023-06-10T03:00:33;17.40;;;12.85;;
25913;SDS011;13718;50.922;5.346;2023-06-10T03:02:59;17.50;;;13.77;;
25913;SDS011;13718;50.922;5.346;2023-06-10T03:05:28;17.83;;;13.23;;
25913;SDS011;13718;50.922;5.346;2023-06-10T03:07:54;20.05;;;13.40;;
25913;SDS011;13718;50.922;5.346;2023-06-10T03:10:20;17.33;;;13.55;;
25913;SDS011;13718;50.922;5.346;2023-06-10T03:12:45;18.42;;;13.80;;
25913;SDS011;13718;50.922;5.346;2023-06-10T03:15:11;19.38;;;13.90;;
25913;SDS011;13718;50.922;5.346;2023-06-10T03:17:37;20.05;;;13.65;;
25913;SDS011;13718;50.922;5.346;2023-06-10T03:20:03;18.63;;;14.68;;
25913;SDS011;13718;50.922;5.346;2023-06-10T03:25:00;21.48;;;14.40;;
25913;SDS011;13718;50.922;5.346;2023-06-10T03:27:26;19.45;;;13.73;;
25913;SDS011;13718;50.922;5.346;2023-06-10T03:29:54;18.58;;;13.75;;
25913;SDS011;13718;50.922;5.346;2023-06-10T03:32:19;18.25;;;13.13;;
25913;SDS011;13718;50.922;5.346;2023-06-10T03:34:45;17.30;;;13.68;;
25913;SDS011;13718;50.922;5.346;2023-06-10T03:37:12;16.45;;;12.77;;
25913;SDS011;13718;50.922;5.346;2023-06-10T03:39:38;17.00;;;13.32;;
25913;SDS011;13718;50.922;5.346;2023-06-10T03:42:04;19.67;;;13.77;;
25913;SDS011;13718;50.922;5.346;2023-06-10T03:44:30;19.30;;;13.40;;
25913;SDS011;13718;50.922;5.346;2023-06-10T03:46:56;19.13;;;14.15;;
25913;SDS011;13718;50.922;5.346;2023-06-10T03:49:22;18.05;;;14.13;;
25913;SDS011;13718;50.922;5.346;2023-06-10T03:51:50;16.55;;;13.48;;
25913;SDS011;13718;50.922;5.346;2023-06-10T03:54:16;17.08;;;13.27;;
25913;SDS011;13718;50.922;5.346;2023-06-10T03:56:41;17.73;;;13.98;;
25913;SDS011;13718;50.922;5.346;2023-06-10T03:59:07;20.17;;;13.57;;
25913;SDS011;13718;50.922;5.346;2023-06-10T04:01:33;16.65;;;13.18;;
25913;SDS011;13718;50.922;5.346;2023-06-10T04:04:00;20.67;;;14.90;;
25913;SDS011;13718;50.922;5.346;2023-06-10T04:06:26;19.65;;;13.65;;
25913;SDS011;13718;50.922;5.346;2023-06-10T04:08:54;23.25;;;13.80;;
25913;SDS011;13718;50.922;5.346;2023-06-10T04:11:21;22.63;;;14.10;;
25913;SDS011;13718;50.922;5.346;2023-06-10T04:13:48;19.90;;;14.02;;
25913;SDS011;13718;50.922;5.346;2023-06-10T04:16:14;18.77;;;13.52;;
25913;SDS011;13718;50.922;5.346;2023-06-10T04:18:40;20.48;;;14.48;;
25913;SDS011;13718;50.922;5.346;2023-06-10T04:21:07;21.55;;;14.10;;
25913;SDS011;13718;50.922;5.346;2023-06-10T04:23:34;19.65;;;13.45;;
25913;SDS011;13718;50.922;5.346;2023-06-10T04:26:01;19.52;;;14.13;;
25913;SDS011;13718;50.922;5.346;2023-06-10T04:28:27;21.23;;;14.80;;
25913;SDS011;13718;50.922;5.346;2023-06-10T04:30:53;19.52;;;15.20;;
25913;SDS011;13718;50.922;5.346;2023-06-10T04:33:18;23.92;;;14.63;;
25913;SDS011;13718;50.922;5.346;2023-06-10T04:35:44;19.98;;;14.95;;
25913;SDS011;13718;50.922;5.346;2023-06-10T04:38:12;25.55;;;15.07;;
25913;SDS011;13718;50.922;5.346;2023-06-10T04:40:38;21.05;;;14.82;;
25913;SDS011;13718;50.922;5.346;2023-06-10T04:43:04;20.42;;;16.20;;
25913;SDS011;13718;50.922;5.346;2023-06-10T04:45:29;24.65;;;15.02;;
25913;SDS011;13718;50.922;5.346;2023-06-10T04:47:56;22.50;;;15.60;;
25913;SDS011;13718;50.922;5.346;2023-06-10T04:50:22;22.77;;;14.43;;
25913;SDS011;13718;50.922;5.346;2023-06-10T04:52:48;25.23;;;15.57;;
25913;SDS011;13718;50.922;5.346;2023-06-10T04:55:14;19.88;;;14.68;;
25913;SDS011;13718;50.922;5.346;2023-06-10T04:57:40;23.98;;;15.20;;
25913;SDS011;13718;50.922;5.346;2023-06-10T05:00:06;21.42;;;14.63;;
25913;SDS011;13718;50.922;5.346;2023-06-10T05:02:33;19.08;;;13.77;;
25913;SDS011;13718;50.922;5.346;2023-06-10T05:04:59;19.33;;;13.70;;
25913;SDS011;13718;50.922;5.346;2023-06-10T05:07:24;22.33;;;14.23;;
25913;SDS011;13718;50.922;5.346;2023-06-10T05:09:50;18.90;;;13.45;;
25913;SDS011;13718;50.922;5.346;2023-06-10T05:12:16;17.67;;;13.15;;
25913;SDS011;13718;50.922;5.346;2023-06-10T05:14:44;20.25;;;13.80;;
25913;SDS011;13718;50.922;5.346;2023-06-10T05:17:11;20.30;;;14.00;;
25913;SDS011;13718;50.922;5.346;2023-06-10T05:19:38;21.58;;;13.13;;
25913;SDS011;13718;50.922;5.346;2023-06-10T05:22:03;20.30;;;13.77;;
25913;SDS011;13718;50.922;5.346;2023-06-10T05:24:29;17.52;;;13.45;;
25913;SDS011;13718;50.922;5.346;2023-06-10T05:26:55;23.50;;;13.73;;
25913;SDS011;13718;50.922;5.346;2023-06-10T05:29:20;17.77;;;12.45;;
25913;SDS011;13718;50.922;5.346;2023-06-10T05:31:46;15.80;;;12.68;;
25913;SDS011;13718;50.922;5.346;2023-06-10T05:34:12;17.20;;;12.23;;
25913;SDS011;13718;50.922;5.346;2023-06-10T05:36:37;19.83;;;11.60;;
25913;SDS011;13718;50.922;5.346;2023-06-10T05:39:03;17.20;;;12.38;;
25913;SDS011;13718;50.922;5.346;2023-06-10T05:41:29;15.45;;;11.55;;
25913;SDS011;13718;50.922;5.346;2023-06-10T05:43:55;15.13;;;11.27;;
25913;SDS011;13718;50.922;5.346;2023-06-10T05:46:21;17.73;;;11.27;;
25913;SDS011;13718;50.922;5.346;2023-06-10T05:48:46;16.00;;;11.30;;
25913;SDS011;13718;50.922;5.346;2023-06-10T05:51:12;16.80;;;10.73;;
25913;SDS011;13718;50.922;5.346;2023-06-10T05:53:37;22.00;;;11.30;;
25913;SDS011;13718;50.922;5.346;2023-06-10T05:56:03;13.90;;;10.63;;
25913;SDS011;13718;50.922;5.346;2023-06-10T05:58:29;16.75;;;10.68;;
25913;SDS011;13718;50.922;5.346;2023-06-10T06:00:55;14.82;;;11.07;;
25913;SDS011;13718;50.922;5.346;2023-06-10T06:03:21;14.85;;;10.18;;
25913;SDS011;13718;50.922;5.346;2023-06-10T06:05:46;14.25;;;10.40;;
25913;SDS011;13718;50.922;5.346;2023-06-10T06:08:12;15.20;;;9.65;;
25913;SDS011;13718;50.922;5.346;2023-06-10T06:10:44;22.15;;;10.07;;
25913;SDS011;13718;50.922;5.346;2023-06-10T06:13:10;13.48;;;9.70;;
25913;SDS011;13718;50.922;5.346;2023-06-10T06:15:35;13.90;;;9.57;;
25913;SDS011;13718;50.922;5.346;2023-06-10T06:18:01;10.25;;;9.05;;
25913;SDS011;13718;50.922;5.346;2023-06-10T06:20:27;14.82;;;9.38;;
25913;SDS011;13718;50.922;5.346;2023-06-10T06:22:52;10.60;;;8.70;;
25913;SDS011;13718;50.922;5.346;2023-06-10T06:25:18;12.68;;;8.57;;
25913;SDS011;13718;50.922;5.346;2023-06-10T06:27:43;13.52;;;9.10;;
25913;SDS011;13718;50.922;5.346;2023-06-10T06:30:09;11.85;;;8.50;;
25913;SDS011;13718;50.922;5.346;2023-06-10T06:32:35;11.65;;;8.48;;
25913;SDS011;13718;50.922;5.346;2023-06-10T06:35:01;10.90;;;7.93;;
25913;SDS011;13718;50.922;5.346;2023-06-10T06:37:26;11.88;;;8.02;;
25913;SDS011;13718;50.922;5.346;2023-06-10T06:39:52;13.02;;;8.18;;
25913;SDS011;13718;50.922;5.346;2023-06-10T06:42:19;15.65;;;8.30;;
25913;SDS011;13718;50.922;5.346;2023-06-10T06:44:46;10.60;;;8.02;;
25913;SDS011;13718;50.922;5.346;2023-06-10T06:47:12;13.63;;;8.18;;
25913;SDS011;13718;50.922;5.346;2023-06-10T06:49:38;14.20;;;9.45;;
25913;SDS011;13718;50.922;5.346;2023-06-10T06:52:04;15.70;;;9.13;;
25913;SDS011;13718;50.922;5.346;2023-06-10T06:54:30;11.32;;;8.82;;
25913;SDS011;13718;50.922;5.346;2023-06-10T06:56:56;12.32;;;8.65;;
25913;SDS011;13718;50.922;5.346;2023-06-10T06:59:22;18.13;;;9.10;;
25913;SDS011;13718;50.922;5.346;2023-06-10T07:01:48;13.73;;;8.68;;
25913;SDS011;13718;50.922;5.346;2023-06-10T07:04:15;13.02;;;9.13;;
25913;SDS011;13718;50.922;5.346;2023-06-10T07:06:41;10.40;;;8.15;;
25913;SDS011;13718;50.922;5.346;2023-06-10T07:09:09;12.20;;;8.73;;
25913;SDS011;13718;50.922;5.346;2023-06-10T07:11:35;13.98;;;8.70;;
25913;SDS011;13718;50.922;5.346;2023-06-10T07:14:00;11.68;;;8.25;;
25913;SDS011;13718;50.922;5.346;2023-06-10T07:16:26;12.20;;;8.60;;
25913;SDS011;13718;50.922;5.346;2023-06-10T07:18:52;12.18;;;8.52;;
25913;SDS011;13718;50.922;5.346;2023-06-10T07:21:18;11.85;;;8.05;;
25913;SDS011;13718;50.922;5.346;2023-06-10T07:23:44;14.02;;;8.23;;
25913;SDS011;13718;50.922;5.346;2023-06-10T07:26:10;11.55;;;8.50;;
25913;SDS011;13718;50.922;5.346;2023-06-10T07:28:36;15.13;;;8.02;;
25913;SDS011;13718;50.922;5.346;2023-06-10T07:31:02;11.88;;;7.88;;
25913;SDS011;13718;50.922;5.346;2023-06-10T07:33:28;11.38;;;7.78;;
25913;SDS011;13718;50.922;5.346;2023-06-10T07:35:54;12.50;;;7.80;;
25913;SDS011;13718;50.922;5.346;2023-06-10T07:38:20;10.02;;;8.00;;
25913;SDS011;13718;50.922;5.346;2023-06-10T07:40:45;10.40;;;7.53;;
25913;SDS011;13718;50.922;5.346;2023-06-10T07:43:11;10.57;;;8.20;;
25913;SDS011;13718;50.922;5.346;2023-06-10T07:45:37;13.80;;;8.57;;
25913;SDS011;13718;50.922;5.346;2023-06-10T07:48:05;10.68;;;8.13;;
25913;SDS011;13718;50.922;5.346;2023-06-10T07:50:30;12.32;;;8.63;;
25913;SDS011;13718;50.922;5.346;2023-06-10T07:52:56;15.52;;;8.20;;
25913;SDS011;13718;50.922;5.346;2023-06-10T07:55:22;10.00;;;7.45;;
25913;SDS011;13718;50.922;5.346;2023-06-10T07:57:47;14.73;;;8.05;;
25913;SDS011;13718;50.922;5.346;2023-06-10T08:00:13;11.35;;;8.10;;
25913;SDS011;13718;50.922;5.346;2023-06-10T08:02:39;17.23;;;8.85;;
25913;SDS011;13718;50.922;5.346;2023-06-10T08:05:05;13.05;;;7.85;;
25913;SDS011;13718;50.922;5.346;2023-06-10T08:07:30;10.60;;;7.85;;
25913;SDS011;13718;50.922;5.346;2023-06-10T08:09:56;14.98;;;8.23;;
25913;SDS011;13718;50.922;5.346;2023-06-10T08:12:22;11.07;;;7.95;;
25913;SDS011;13718;50.922;5.346;2023-06-10T08:14:48;17.02;;;8.68;;
25913;SDS011;13718;50.922;5.346;2023-06-10T08:17:13;11.43;;;7.53;;
25913;SDS011;13718;50.922;5.346;2023-06-10T08:19:39;12.63;;;7.95;;
25913;SDS011;13718;50.922;5.346;2023-06-10T08:22:05;11.93;;;7.80;;
25913;SDS011;13718;50.922;5.346;2023-06-10T08:24:30;10.75;;;7.40;;
25913;SDS011;13718;50.922;5.346;2023-06-10T08:26:56;16.77;;;7.75;;
25913;SDS011;13718;50.922;5.346;2023-06-10T08:29:22;13.85;;;8.30;;
25913;SDS011;13718;50.922;5.346;2023-06-10T08:31:48;10.25;;;7.18;;
25913;SDS011;13718;50.922;5.346;2023-06-10T08:34:14;9.90;;;7.22;;
25913;SDS011;13718;50.922;5.346;2023-06-10T08:36:40;12.75;;;7.45;;
25913;SDS011;13718;50.922;5.346;2023-06-10T08:39:06;10.10;;;6.93;;
25913;SDS011;13718;50.922;5.346;2023-06-10T08:41:35;10.65;;;7.20;;
25913;SDS011;13718;50.922;5.346;2023-06-10T08:44:12;12.45;;;7.65;;
25913;SDS011;13718;50.922;5.346;2023-06-10T08:46:45;15.43;;;6.97;;
25913;SDS011;13718;50.922;5.346;2023-06-10T08:49:10;11.98;;;7.63;;
25913;SDS011;13718;50.922;5.346;2023-06-10T08:51:42;11.60;;;6.85;;
25913;SDS011;13718;50.922;5.346;2023-06-10T08:54:15;11.85;;;7.35;;
25913;SDS011;13718;50.922;5.346;2023-06-10T08:56:45;12.57;;;7.88;;
25913;SDS011;13718;50.922;5.346;2023-06-10T08:59:14;12.25;;;7.53;;
25913;SDS011;13718;50.922;5.346;2023-06-10T09:01:41;9.15;;;6.90;;
25913;SDS011;13718;50.922;5.346;2023-06-10T09:04:08;10.95;;;7.38;;
25913;SDS011;13718;50.922;5.346;2023-06-10T09:06:34;8.90;;;7.50;;
25913;SDS011;13718;50.922;5.346;2023-06-10T09:09:01;10.15;;;7.28;;
25913;SDS011;13718;50.922;5.346;2023-06-10T09:11:28;8.23;;;7.18;;
25913;SDS011;13718;50.922;5.346;2023-06-10T09:13:53;10.32;;;6.82;;
25913;SDS011;13718;50.922;5.346;2023-06-10T09:16:19;9.68;;;7.13;;
25913;SDS011;13718;50.922;5.346;2023-06-10T09:18:45;11.73;;;7.03;;
25913;SDS011;13718;50.922;5.346;2023-06-10T09:21:10;9.80;;;6.97;;
25913;SDS011;13718;50.922;5.346;2023-06-10T09:23:36;9.73;;;7.45;;
25913;SDS011;13718;50.922;5.346;2023-06-10T09:26:02;11.45;;;7.35;;
25913;SDS011;13718;50.922;5.346;2023-06-10T09:28:33;9.05;;;7.07;;
25913;SDS011;13718;50.922;5.346;2023-06-10T09:31:02;8.27;;;6.72;;
25913;SDS011;13718;50.922;5.346;2023-06-10T09:33:32;10.88;;;6.80;;
25913;SDS011;13718;50.922;5.346;2023-06-10T09:35:59;10.10;;;6.85;;
25913;SDS011;13718;50.922;5.346;2023-06-10T09:38:30;9.35;;;6.80;;
25913;SDS011;13718;50.922;5.346;2023-06-10T09:40:57;8.43;;;6.38;;
25913;SDS011;13718;50.922;5.346;2023-06-10T09:43:38;9.93;;;6.75;;
25913;SDS011;13718;50.922;5.346;2023-06-10T09:46:17;11.65;;;7.05;;
25913;SDS011;13718;50.922;5.346;2023-06-10T09:48:44;12.07;;;7.07;;
25913;SDS011;13718;50.922;5.346;2023-06-10T09:51:12;9.75;;;6.97;;
25913;SDS011;13718;50.922;5.346;2023-06-10T09:53:39;12.80;;;6.97;;
25913;SDS011;13718;50.922;5.346;2023-06-10T09:56:05;9.43;;;6.88;;
25913;SDS011;13718;50.922;5.346;2023-06-10T09:58:34;15.10;;;8.20;;
25913;SDS011;13718;50.922;5.346;2023-06-10T10:01:04;9.98;;;7.30;;
25913;SDS011;13718;50.922;5.346;2023-06-10T10:03:31;11.45;;;7.93;;
25913;SDS011;13718;50.922;5.346;2023-06-10T10:06:00;9.45;;;6.70;;
25913;SDS011;13718;50.922;5.346;2023-06-10T10:08:26;11.50;;;7.13;;
25913;SDS011;13718;50.922;5.346;2023-06-10T10:10:51;9.68;;;6.72;;
25913;SDS011;13718;50.922;5.346;2023-06-10T10:13:17;11.63;;;7.57;;
25913;SDS011;13718;50.922;5.346;2023-06-10T10:15:43;9.88;;;7.15;;
25913;SDS011;13718;50.922;5.346;2023-06-10T10:18:11;11.80;;;7.07;;
25913;SDS011;13718;50.922;5.346;2023-06-10T10:20:47;11.48;;;7.10;;
25913;SDS011;13718;50.922;5.346;2023-06-10T10:23:21;11.98;;;6.60;;
25913;SDS011;13718;50.922;5.346;2023-06-10T10:25:52;10.88;;;6.80;;
25913;SDS011;13718;50.922;5.346;2023-06-10T10:28:20;11.02;;;7.40;;
25913;SDS011;13718;50.922;5.346;2023-06-10T10:30:50;11.45;;;6.88;;
25913;SDS011;13718;50.922;5.346;2023-06-10T10:33:20;9.05;;;6.55;;
25913;SDS011;13718;50.922;5.346;2023-06-10T10:35:51;9.20;;;7.05;;
25913;SDS011;13718;50.922;5.346;2023-06-10T10:38:18;13.05;;;6.95;;
25913;SDS011;13718;50.922;5.346;2023-06-10T10:40:45;13.32;;;7.90;;
25913;SDS011;13718;50.922;5.346;2023-06-10T10:43:12;12.57;;;7.07;;
25913;SDS011;13718;50.922;5.346;2023-06-10T10:45:38;12.52;;;7.00;;
25913;SDS011;13718;50.922;5.346;2023-06-10T10:48:10;15.68;;;7.35;;
25913;SDS011;13718;50.922;5.346;2023-06-10T10:50:37;12.35;;;7.13;;
25913;SDS011;13718;50.922;5.346;2023-06-10T10:53:04;9.88;;;7.50;;
25913;SDS011;13718;50.922;5.346;2023-06-10T10:55:31;10.77;;;7.05;;
25913;SDS011;13718;50.922;5.346;2023-06-10T10:58:04;9.75;;;6.72;;
25913;SDS011;13718;50.922;5.346;2023-06-10T11:00:34;13.88;;;7.22;;
25913;SDS011;13718;50.922;5.346;2023-06-10T11:03:07;9.93;;;7.00;;
25913;SDS011;13718;50.922;5.346;2023-06-10T11:05:40;8.27;;;6.60;;
25913;SDS011;13718;50.922;5.346;2023-06-10T11:08:09;10.43;;;6.65;;
25913;SDS011;13718;50.922;5.346;2023-06-10T11:13:05;9.77;;;6.22;;
25913;SDS011;13718;50.922;5.346;2023-06-10T11:15:39;10.73;;;6.15;;
25913;SDS011;13718;50.922;5.346;2023-06-10T11:34:04;18.00;;;7.15;;
25913;SDS011;13718;50.922;5.346;2023-06-10T11:36:32;11.73;;;7.07;;
25913;SDS011;13718;50.922;5.346;2023-06-10T11:38:59;10.00;;;6.85;;
25913;SDS011;13718;50.922;5.346;2023-06-10T11:41:29;8.75;;;6.32;;
25913;SDS011;13718;50.922;5.346;2023-06-10T11:44:17;10.20;;;6.63;;
25913;SDS011;13718;50.922;5.346;2023-06-10T11:46:41;7.18;;;5.90;;
25913;SDS011;13718;50.922;5.346;2023-06-10T11:49:07;10.80;;;6.03;;
25913;SDS011;13718;50.922;5.346;2023-06-10T11:51:36;9.15;;;6.30;;
25913;SDS011;13718;50.922;5.346;2023-06-10T11:56:31;10.63;;;6.40;;
25913;SDS011;13718;50.922;5.346;2023-06-10T11:58:58;9.90;;;6.70;;
25913;SDS011;13718;50.922;5.346;2023-06-10T12:01:35;11.77;;;6.50;;
25913;SDS011;13718;50.922;5.346;2023-06-10T12:04:03;11.05;;;6.70;;
25913;SDS011;13718;50.922;5.346;2023-06-10T12:06:49;10.90;;;6.45;;
25913;SDS011;13718;50.922;5.346;2023-06-10T12:09:19;9.43;;;6.47;;
25913;SDS011;13718;50.922;5.346;2023-06-10T12:11:45;11.20;;;6.50;;
25913;SDS011;13718;50.922;5.346;2023-06-10T12:14:15;9.00;;;6.47;;
25913;SDS011;13718;50.922;5.346;2023-06-10T12:16:41;13.45;;;7.13;;
25913;SDS011;13718;50.922;5.346;2023-06-10T12:19:14;10.02;;;6.32;;
25913;SDS011;13718;50.922;5.346;2023-06-10T12:21:39;9.15;;;5.85;;
25913;SDS011;13718;50.922;5.346;2023-06-10T12:24:06;8.63;;;6.20;;
25913;SDS011;13718;50.922;5.346;2023-06-10T12:26:34;11.85;;;6.68;;
25913;SDS011;13718;50.922;5.346;2023-06-10T12:34:37;7.53;;;6.32;;
25913;SDS011;13718;50.922;5.346;2023-06-10T12:37:05;10.05;;;6.38;;
25913;SDS011;13718;50.922;5.346;2023-06-10T12:39:38;12.70;;;6.30;;
25913;SDS011;13718;50.922;5.346;2023-06-10T12:42:04;9.82;;;6.07;;
25913;SDS011;13718;50.922;5.346;2023-06-10T12:44:34;10.45;;;6.53;;
25913;SDS011;13718;50.922;5.346;2023-06-10T12:47:09;7.85;;;5.70;;
25913;SDS011;13718;50.922;5.346;2023-06-10T12:49:39;10.25;;;6.60;;
25913;SDS011;13718;50.922;5.346;2023-06-10T12:52:05;12.15;;;6.72;;
25913;SDS011;13718;50.922;5.346;2023-06-10T12:54:31;15.35;;;6.85;;
25913;SDS011;13718;50.922;5.346;2023-06-10T12:56:57;12.25;;;6.93;;
25913;SDS011;13718;50.922;5.346;2023-06-10T12:59:23;17.25;;;7.35;;
25913;SDS011;13718;50.922;5.346;2023-06-10T13:01:50;10.10;;;6.53;;
25913;SDS011;13718;50.922;5.346;2023-06-10T13:04:16;10.85;;;6.53;;
25913;SDS011;13718;50.922;5.346;2023-06-10T13:06:43;9.38;;;6.68;;
25913;SDS011;13718;50.922;5.346;2023-06-10T13:09:09;8.48;;;6.18;;
25913;SDS011;13718;50.922;5.346;2023-06-10T13:11:35;8.98;;;5.88;;
25913;SDS011;13718;50.922;5.346;2023-06-10T13:14:02;10.20;;;6.43;;
25913;SDS011;13718;50.922;5.346;2023-06-10T13:16:29;10.15;;;6.25;;
25913;SDS011;13718;50.922;5.346;2023-06-10T13:18:56;9.63;;;6.05;;
25913;SDS011;13718;50.922;5.346;2023-06-10T13:21:22;9.05;;;6.30;;
25913;SDS011;13718;50.922;5.346;2023-06-10T13:23:48;11.13;;;6.68;;
25913;SDS011;13718;50.922;5.346;2023-06-10T13:26:16;10.23;;;6.90;;
25913;SDS011;13718;50.922;5.346;2023-06-10T13:28:43;8.57;;;6.05;;
25913;SDS011;13718;50.922;5.346;2023-06-10T13:31:09;8.05;;;5.85;;
25913;SDS011;13718;50.922;5.346;2023-06-10T13:33:35;10.38;;;5.63;;
25913;SDS011;13718;50.922;5.346;2023-06-10T13:36:00;8.15;;;6.28;;
25913;SDS011;13718;50.922;5.346;2023-06-10T13:38:26;10.48;;;6.10;;
25913;SDS011;13718;50.922;5.346;2023-06-10T13:40:51;8.85;;;5.47;;
25913;SDS011;13718;50.922;5.346;2023-06-10T13:43:17;8.68;;;5.95;;
25913;SDS011;13718;50.922;5.346;2023-06-10T13:45:42;11.30;;;6.63;;
25913;SDS011;13718;50.922;5.346;2023-06-10T13:48:08;8.95;;;5.97;;
25913;SDS011;13718;50.922;5.346;2023-06-10T13:50:34;10.35;;;6.55;;
25913;SDS011;13718;50.922;5.346;2023-06-10T13:52:59;11.98;;;6.70;;
25913;SDS011;13718;50.922;5.346;2023-06-10T13:55:25;12.43;;;6.07;;
25913;SDS011;13718;50.922;5.346;2023-06-10T13:57:51;10.05;;;6.35;;
25913;SDS011;13718;50.922;5.346;2023-06-10T14:00:16;8.90;;;6.15;;
25913;SDS011;13718;50.922;5.346;2023-06-10T14:02:42;10.23;;;5.80;;
25913;SDS011;13718;50.922;5.346;2023-06-10T14:05:08;9.43;;;5.43;;
25913;SDS011;13718;50.922;5.346;2023-06-10T14:07:34;8.98;;;5.63;;
25913;SDS011;13718;50.922;5.346;2023-06-10T14:10:00;10.88;;;5.43;;
25913;SDS011;13718;50.922;5.346;2023-06-10T14:12:25;7.72;;;5.40;;
25913;SDS011;13718;50.922;5.346;2023-06-10T14:14:51;9.00;;;5.90;;
25913;SDS011;13718;50.922;5.346;2023-06-10T14:17:17;7.93;;;5.57;;
25913;SDS011;13718;50.922;5.346;2023-06-10T14:19:42;10.23;;;6.07;;
25913;SDS011;13718;50.922;5.346;2023-06-10T14:22:08;7.85;;;5.90;;
25913;SDS011;13718;50.922;5.346;2023-06-10T14:24:34;10.68;;;5.15;;
25913;SDS011;13718;50.922;5.346;2023-06-10T14:27:01;8.13;;;5.90;;
25913;SDS011;13718;50.922;5.346;2023-06-10T14:29:26;12.10;;;6.30;;
25913;SDS011;13718;50.922;5.346;2023-06-10T14:31:54;8.43;;;5.97;;
25913;SDS011;13718;50.922;5.346;2023-06-10T14:34:20;11.00;;;6.43;;
25913;SDS011;13718;50.922;5.346;2023-06-10T14:36:45;9.27;;;6.00;;
25913;SDS011;13718;50.922;5.346;2023-06-10T14:39:11;10.10;;;6.10;;
25913;SDS011;13718;50.922;5.346;2023-06-10T14:41:36;9.20;;;6.63;;
25913;SDS011;13718;50.922;5.346;2023-06-10T14:44:02;9.00;;;6.07;;
25913;SDS011;13718;50.922;5.346;2023-06-10T14:46:28;10.63;;;6.03;;
25913;SDS011;13718;50.922;5.346;2023-06-10T14:48:53;7.63;;;5.97;;
25913;SDS011;13718;50.922;5.346;2023-06-10T14:51:19;11.15;;;6.57;;
25913;SDS011;13718;50.922;5.346;2023-06-10T14:53:45;13.02;;;6.18;;
25913;SDS011;13718;50.922;5.346;2023-06-10T14:56:11;9.10;;;6.50;;
25913;SDS011;13718;50.922;5.346;2023-06-10T14:58:37;11.45;;;6.40;;
25913;SDS011;13718;50.922;5.346;2023-06-10T15:01:03;10.50;;;6.60;;
25913;SDS011;13718;50.922;5.346;2023-06-10T15:03:28;8.27;;;6.18;;